Στοιχεία αεροπορικών μετεωρολογικών δεδομένων METAR     LHBP Budapest Liszt Ferenc International Airport
θερμοκρασία
24°C θερμοκρασία
13°C Σημείο δρόσου
50% Υγρασία



Ανεμος
5 KM/H
3 MPH
1 M/S
3 KTS



60°
AVA
Τρέχουσες συνθήκες

Σαφή Σαφή
πίεση 1017.92 (hPa) - 30.06 (inHg)
Ορατότητα 6.2 (μίλι) - 10 (km)
Aεροδρόμιο
Κωδικός αεροδρομίου LHBP

Τοποθεσία: Budapest Liszt Ferenc International Airport
Απόσταση: 14 (km)

Metar:
LHBP 070700Z 06003KT 340V110 CAVOK 24/13 Q1018 NOSIG

ώρα: 2021-06-07 08:00 BST